Strona główna
METAR-TAF:

METAR-TAF

Lotnisko :

Port lotniczy Logroño-Agoncillo

Logroño, Hiszpania

Szerokość geograficzna: 42-27N, Długość geograficzna: 002-20W, wysokość: 353 m

Aktualna obserwacja pogody

Raport powstał 37 minut temu, godzina 10:30 UTC
Wiatr 5 kt od zachodnio-północny zachód, zmienny między zachodnio-południowy zachód i północny zachód
Temperatura 9°C
Wilgotność 66%
Ciśnienie 1035 hPa
Widzialność 10 km lub więcej
Mało chmury na wysokości 3000 ft
Przerywane chmury na wysokości 3800 ft

METAR: LELO 181030Z 29005KT 250V320 9999 FEW030 BKN038 09/03 Q1035

czas: 12:07 (11:07 UTC)

Prognoza

Raport powstał 3 godziny i 7 minut temu, godzina 08:00 UTC
Prognoza ważna od 18 godzina 09 UTC do 18 godzina 18 UTC
Wiatr 8 kt od zachód
Widzialność 10 km lub więcej
Mało chmury na wysokości 3500 ft

TAF: LELO 180800Z 1809/1818 27008KT 9999 FEW035

Obserwacja i prognoza pogody dla ponad 4000 lotnisk (raport METAR i TAF).

Dostępne stacje oznaczono żółtymi i czerwonymi punktami na mapie.

Najedź kursorem aby zobaczyć nazwę stacji.

Kliknij aby zobaczyć obserwacje i prognozy pogody.

Aby zmienić mapę: kliknij na zielony przycisk z czarnym krzyżykiem, aby powiększyć; na zielony przycisk z myślnikiem, aby pomniejszyć; na zielone strzałki, aby przejść do map sąsiednich.


METAR-TAF: